createdAt,value
2023-03-29T00:04:02.853Z,13.40
2023-03-29T00:06:33.425Z,12.70
2023-03-29T00:09:06.057Z,12.50
2023-03-29T00:11:34.644Z,11.60
2023-03-29T00:14:03.484Z,11.50
2023-03-29T00:16:32.381Z,11.70
2023-03-29T00:19:01.278Z,11.30
2023-03-29T00:21:29.840Z,11.40
2023-03-29T00:23:59.499Z,10.40
2023-03-29T00:26:28.646Z,7.00
2023-03-29T00:28:57.128Z,8.40
2023-03-29T00:31:27.039Z,18.00
2023-03-29T00:33:56.071Z,22.20
2023-03-29T00:36:24.838Z,21.40
2023-03-29T00:38:53.901Z,17.40
2023-03-29T00:41:22.928Z,18.70
2023-03-29T00:44:00.767Z,25.70
2023-03-29T00:46:32.419Z,25.50
2023-03-29T00:49:09.716Z,26.30
2023-03-29T00:51:41.617Z,17.70
2023-03-29T00:54:16.809Z,12.60
2023-03-29T00:56:50.225Z,11.70
2023-03-29T00:59:24.835Z,11.30
2023-03-29T01:02:14.875Z,10.30
2023-03-29T01:04:54.061Z,27.90
2023-03-29T01:07:38.871Z,24.70
2023-03-29T01:10:12.590Z,16.90
2023-03-29T01:12:46.945Z,16.10
2023-03-29T01:15:20.558Z,17.10
2023-03-29T01:17:52.032Z,10.70
2023-03-29T01:20:39.212Z,10.00
2023-03-29T01:23:31.138Z,10.00
2023-03-29T01:25:59.859Z,9.70
2023-03-29T01:28:36.192Z,11.30
2023-03-29T01:31:11.152Z,10.80
2023-03-29T01:33:49.364Z,10.80
2023-03-29T01:36:52.107Z,9.50
2023-03-29T01:39:22.335Z,7.90
2023-03-29T01:42:18.721Z,8.30
2023-03-29T01:44:57.651Z,9.00
2023-03-29T01:47:44.789Z,8.30
2023-03-29T01:50:28.672Z,10.70
2023-03-29T01:53:03.330Z,10.20
2023-03-29T01:55:36.536Z,9.10
2023-03-29T01:58:09.163Z,10.30
2023-03-29T02:00:40.540Z,10.50
2023-03-29T02:03:10.948Z,9.10
2023-03-29T02:05:40.150Z,8.70
2023-03-29T02:08:11.525Z,8.70
2023-03-29T02:10:40.882Z,12.00
2023-03-29T02:13:09.630Z,8.70
2023-03-29T02:15:39.228Z,8.70
2023-03-29T02:18:08.278Z,7.30
2023-03-29T02:20:41.212Z,4.20
2023-03-29T02:23:25.008Z,6.10
2023-03-29T02:25:57.479Z,6.00
2023-03-29T02:28:29.755Z,5.50
2023-03-29T02:31:15.163Z,7.30
2023-03-29T02:34:37.942Z,5.70
2023-03-29T02:37:16.125Z,5.30
2023-03-29T02:39:48.026Z,5.80
2023-03-29T02:42:20.772Z,5.40
2023-03-29T02:44:52.420Z,5.40
2023-03-29T02:47:32.118Z,6.70
2023-03-29T02:50:01.549Z,5.90
2023-03-29T02:52:36.412Z,5.70
2023-03-29T02:55:08.560Z,5.20
2023-03-29T02:57:40.131Z,5.20
2023-03-29T03:00:10.816Z,5.40
2023-03-29T03:02:39.835Z,5.50
2023-03-29T03:05:09.782Z,3.70
2023-03-29T03:07:40.811Z,3.60
2023-03-29T03:10:10.744Z,5.60
2023-03-29T03:12:39.703Z,6.40
2023-03-29T03:15:09.096Z,5.20
2023-03-29T03:17:40.568Z,7.30
2023-03-29T03:20:13.428Z,6.70
2023-03-29T03:22:49.432Z,4.90
2023-03-29T03:25:21.353Z,5.80
2023-03-29T03:27:52.435Z,5.40
2023-03-29T03:30:22.791Z,5.60
2023-03-29T03:33:11.928Z,5.60
2023-03-29T03:36:06.711Z,5.40
2023-03-29T03:38:40.622Z,8.00
2023-03-29T03:41:09.360Z,7.10
2023-03-29T03:43:38.323Z,6.30
2023-03-29T03:46:09.223Z,5.70
2023-03-29T03:51:10.960Z,4.80
2023-03-29T03:53:41.865Z,5.20
2023-03-29T03:56:17.385Z,9.00
2023-03-29T03:59:00.200Z,4.40
2023-03-29T04:01:29.652Z,6.00
2023-03-29T04:04:04.812Z,5.10
2023-03-29T04:06:34.526Z,4.30
2023-03-29T04:09:23.558Z,7.30
2023-03-29T04:14:32.558Z,5.20
2023-03-29T04:17:16.682Z,17.00
2023-03-29T04:19:50.056Z,7.90
2023-03-29T04:22:20.348Z,5.10
2023-03-29T04:24:50.032Z,4.50
2023-03-29T04:27:38.146Z,3.90
2023-03-29T04:30:13.304Z,4.80
2023-03-29T04:33:02.072Z,25.30
2023-03-29T04:35:30.934Z,32.70
2023-03-29T04:37:59.571Z,13.70
2023-03-29T04:40:29.616Z,9.60
2023-03-29T04:45:58.651Z,14.70
2023-03-29T04:48:56.229Z,13.60
2023-03-29T04:51:33.725Z,12.10
2023-03-29T04:54:02.470Z,17.70
2023-03-29T04:56:32.251Z,11.50
2023-03-29T04:59:24.641Z,16.50
2023-03-29T05:01:54.829Z,9.60
2023-03-29T05:04:24.943Z,7.00
2023-03-29T05:07:04.818Z,6.60
2023-03-29T05:09:35.384Z,5.50
2023-03-29T05:12:07.118Z,6.10
2023-03-29T05:14:46.281Z,5.20
2023-03-29T05:17:15.692Z,6.70
2023-03-29T05:19:44.259Z,7.40
2023-03-29T05:22:12.825Z,5.80
2023-03-29T05:24:42.737Z,7.50
2023-03-29T05:27:18.407Z,7.30
2023-03-29T05:29:58.963Z,5.70
2023-03-29T05:33:05.864Z,6.20
2023-03-29T05:35:36.601Z,7.10
2023-03-29T05:38:07.243Z,13.30
2023-03-29T05:40:36.376Z,10.10
2023-03-29T05:43:22.496Z,9.70
2023-03-29T05:45:54.382Z,7.90
2023-03-29T05:48:24.576Z,7.90
2023-03-29T05:50:54.776Z,9.10
2023-03-29T05:55:53.928Z,7.40
2023-03-29T05:58:26.897Z,6.90
2023-03-29T06:00:56.231Z,6.10
2023-03-29T06:03:44.169Z,7.30
2023-03-29T06:06:16.770Z,7.30
2023-03-29T06:08:46.744Z,5.50
2023-03-29T06:11:35.805Z,6.60
2023-03-29T06:14:16.371Z,6.50
2023-03-29T06:16:50.575Z,7.30
2023-03-29T06:19:19.973Z,8.10
2023-03-29T06:21:48.816Z,8.80
2023-03-29T06:24:21.658Z,10.50
2023-03-29T06:26:56.644Z,11.60
2023-03-29T06:29:26.011Z,14.60
2023-03-29T06:31:55.274Z,10.90
2023-03-29T06:34:43.353Z,10.20
2023-03-29T06:37:32.880Z,12.60
2023-03-29T06:40:34.600Z,12.40
2023-03-29T06:43:03.141Z,6.90
2023-03-29T06:45:47.751Z,6.30
2023-03-29T06:48:23.187Z,7.10
2023-03-29T06:50:52.992Z,8.30
2023-03-29T06:53:24.970Z,31.40
2023-03-29T06:55:57.693Z,28.00
2023-03-29T06:58:41.392Z,11.40
2023-03-29T07:01:22.388Z,10.50
2023-03-29T07:03:57.623Z,9.90
2023-03-29T07:06:32.070Z,12.50
2023-03-29T07:09:01.933Z,9.90
2023-03-29T07:11:54.003Z,8.20
2023-03-29T07:14:30.277Z,6.70
2023-03-29T07:16:59.625Z,10.90
2023-03-29T07:19:34.727Z,9.30
2023-03-29T07:22:36.452Z,10.40
2023-03-29T07:25:06.167Z,9.70
2023-03-29T07:27:36.662Z,12.30
2023-03-29T07:30:11.350Z,15.40
2023-03-29T07:32:44.720Z,9.70
2023-03-29T07:35:34.243Z,11.40
2023-03-29T07:38:04.241Z,11.30
2023-03-29T07:40:34.754Z,8.40
2023-03-29T07:43:22.645Z,9.20
2023-03-29T07:45:53.370Z,8.10
2023-03-29T07:48:22.527Z,8.90
2023-03-29T07:50:59.158Z,8.80
2023-03-29T07:53:32.626Z,8.80
2023-03-29T07:56:05.131Z,14.80
2023-03-29T07:58:53.441Z,6.90
2023-03-29T08:04:14.029Z,7.40
2023-03-29T08:07:01.833Z,7.20
2023-03-29T08:09:54.132Z,8.10
2023-03-29T08:12:27.148Z,10.10
2023-03-29T08:14:57.849Z,7.30
2023-03-29T08:17:33.755Z,5.50
2023-03-29T08:20:04.200Z,5.60
2023-03-29T08:25:20.998Z,4.80
2023-03-29T08:27:51.915Z,5.70
2023-03-29T08:30:30.396Z,10.90
2023-03-29T08:32:59.436Z,15.10
2023-03-29T08:35:28.064Z,11.40
2023-03-29T08:38:17.533Z,9.10
2023-03-29T08:40:49.087Z,12.30
2023-03-29T08:43:58.372Z,9.70
2023-03-29T08:46:56.026Z,6.30
2023-03-29T08:49:31.177Z,8.10
2023-03-29T08:52:05.969Z,9.70
2023-03-29T08:54:49.107Z,11.10
2023-03-29T08:57:29.341Z,13.60
2023-03-29T09:00:32.887Z,11.30
2023-03-29T09:03:22.576Z,9.20
2023-03-29T09:06:08.829Z,7.90
2023-03-29T09:08:46.984Z,6.50
2023-03-29T09:11:33.409Z,6.80
2023-03-29T09:14:11.225Z,5.70
2023-03-29T09:16:43.638Z,6.20
2023-03-29T09:19:27.961Z,5.00
2023-03-29T09:22:16.383Z,19.70
2023-03-29T09:25:00.912Z,17.50
2023-03-29T09:27:39.538Z,8.40
2023-03-29T09:30:28.861Z,9.80
2023-03-29T09:33:15.834Z,4.50
2023-03-29T09:36:18.892Z,5.00
2023-03-29T09:42:08.399Z,9.20
2023-03-29T09:44:42.586Z,5.80
2023-03-29T09:47:17.642Z,3.90
2023-03-29T09:49:49.740Z,7.10
2023-03-29T09:52:21.217Z,8.90
2023-03-29T09:57:54.283Z,5.90
2023-03-29T10:00:23.349Z,5.90
2023-03-29T10:02:54.060Z,6.60
2023-03-29T10:05:30.367Z,4.70
2023-03-29T10:08:01.745Z,4.40
2023-03-29T10:10:34.268Z,4.40
2023-03-29T10:13:11.780Z,4.40
2023-03-29T10:15:40.621Z,5.20
2023-03-29T10:18:14.088Z,5.30
2023-03-29T10:20:43.154Z,7.40
2023-03-29T10:23:18.804Z,7.50
2023-03-29T10:25:47.875Z,7.10
2023-03-29T10:28:21.591Z,9.10
2023-03-29T10:30:56.690Z,9.30
2023-03-29T10:33:31.640Z,11.60
2023-03-29T10:36:03.257Z,14.40
2023-03-29T10:38:32.428Z,7.70
2023-03-29T10:41:08.424Z,6.40
2023-03-29T10:43:44.827Z,8.40
2023-03-29T10:46:20.173Z,5.20
2023-03-29T10:48:51.619Z,9.80
2023-03-29T10:51:21.991Z,62.70
2023-03-29T10:53:51.071Z,9.40
2023-03-29T10:56:23.456Z,6.20
2023-03-29T10:59:04.014Z,5.40
2023-03-29T11:01:39.182Z,5.00
2023-03-29T11:04:30.862Z,4.50
2023-03-29T11:07:32.128Z,10.90
2023-03-29T11:10:10.252Z,9.20
2023-03-29T11:12:52.558Z,8.80
2023-03-29T11:15:58.238Z,7.80
2023-03-29T11:19:02.421Z,5.00
2023-03-29T11:21:50.382Z,4.60
2023-03-29T11:24:19.150Z,8.50
2023-03-29T11:27:06.856Z,9.70
2023-03-29T11:30:13.661Z,6.60
2023-03-29T11:32:51.195Z,5.90
2023-03-29T11:35:45.896Z,4.50
2023-03-29T11:38:33.172Z,5.10
2023-03-29T11:41:15.496Z,13.70
2023-03-29T11:43:55.154Z,11.50
2023-03-29T11:46:27.652Z,9.10
2023-03-29T11:49:21.671Z,7.00
2023-03-29T11:52:06.489Z,5.90
2023-03-29T11:54:59.166Z,5.50
2023-03-29T11:57:54.712Z,5.50
2023-03-29T12:00:33.129Z,4.70
2023-03-29T12:03:23.203Z,6.20
2023-03-29T12:06:18.421Z,12.50
2023-03-29T12:09:03.482Z,6.80
2023-03-29T12:11:41.008Z,7.00
2023-03-29T12:14:22.480Z,5.50
2023-03-29T12:17:05.674Z,4.80
2023-03-29T12:19:55.877Z,5.00
2023-03-29T12:24:58.492Z,51.40
2023-03-29T12:27:59.980Z,17.10
2023-03-29T12:30:55.258Z,13.90
2023-03-29T12:33:41.167Z,13.50
2023-03-29T12:36:42.091Z,13.50
2023-03-29T12:39:51.908Z,19.60
2023-03-29T12:43:13.398Z,6.90
2023-03-29T12:46:26.057Z,27.70
2023-03-29T12:49:01.734Z,25.10
2023-03-29T12:51:33.756Z,20.20
2023-03-29T12:54:22.301Z,19.00
2023-03-29T12:56:54.683Z,12.50
2023-03-29T12:59:23.255Z,13.30
2023-03-29T13:02:10.986Z,12.90
2023-03-29T13:04:43.366Z,6.80
2023-03-29T13:07:17.761Z,6.10
2023-03-29T13:09:53.058Z,10.80
2023-03-29T13:12:27.520Z,25.20
2023-03-29T13:15:21.678Z,25.40
2023-03-29T13:17:59.667Z,17.90
2023-03-29T13:20:37.999Z,26.90
2023-03-29T13:23:09.655Z,9.90
2023-03-29T13:26:00.545Z,26.60
2023-03-29T13:28:29.618Z,15.20
2023-03-29T13:31:23.892Z,20.50
2023-03-29T13:34:00.246Z,17.60
2023-03-29T13:36:33.104Z,10.40
2023-03-29T13:39:08.859Z,7.00
2023-03-29T13:41:41.003Z,7.70
2023-03-29T13:44:43.975Z,14.70
2023-03-29T13:47:34.343Z,40.90
2023-03-29T13:50:15.123Z,30.80
2023-03-29T13:52:54.867Z,10.50
2023-03-29T13:55:33.602Z,16.50
2023-03-29T13:58:13.645Z,11.60
2023-03-29T14:00:50.010Z,19.40
2023-03-29T14:03:26.628Z,32.50
2023-03-29T14:06:02.141Z,31.40
2023-03-29T14:08:35.992Z,43.80
2023-03-29T14:11:07.627Z,26.00
2023-03-29T14:13:37.739Z,11.30
2023-03-29T14:16:11.314Z,9.60
2023-03-29T14:18:42.435Z,8.20
2023-03-29T14:21:14.330Z,7.60
2023-03-29T14:23:46.916Z,7.40
2023-03-29T14:26:22.337Z,7.60
2023-03-29T14:28:53.602Z,29.30
2023-03-29T14:31:42.635Z,23.30
2023-03-29T14:34:16.905Z,20.30
2023-03-29T14:36:49.528Z,19.70
2023-03-29T14:39:21.712Z,12.50
2023-03-29T14:41:58.150Z,13.20
2023-03-29T14:44:32.339Z,10.90
2023-03-29T14:47:03.619Z,8.40
2023-03-29T14:49:32.708Z,8.70
2023-03-29T14:52:01.312Z,12.30
2023-03-29T14:54:33.931Z,16.60
2023-03-29T14:57:07.528Z,27.30
2023-03-29T14:59:43.143Z,37.10
2023-03-29T15:02:29.947Z,106.30
2023-03-29T15:05:03.746Z,30.30
2023-03-29T15:07:34.924Z,16.50
2023-03-29T15:10:06.837Z,14.90
2023-03-29T15:12:38.241Z,12.00
2023-03-29T15:15:12.473Z,20.60
2023-03-29T15:17:50.262Z,15.60
2023-03-29T15:20:27.920Z,12.90
2023-03-29T15:23:01.172Z,12.00
2023-03-29T15:25:36.714Z,17.30
2023-03-29T15:28:05.500Z,17.20
2023-03-29T15:30:46.252Z,19.70
2023-03-29T15:33:23.318Z,17.50
2023-03-29T15:35:54.055Z,16.50
2023-03-29T15:38:30.203Z,15.40
2023-03-29T15:41:08.858Z,12.20
2023-03-29T15:43:39.077Z,13.40
2023-03-29T15:46:08.430Z,9.80
2023-03-29T15:48:37.937Z,15.30
2023-03-29T15:51:07.810Z,11.40
2023-03-29T15:53:36.676Z,17.70
2023-03-29T15:56:08.061Z,23.90
2023-03-29T15:58:38.230Z,41.50
2023-03-29T16:01:33.885Z,33.90
2023-03-29T16:04:12.472Z,22.00
2023-03-29T16:06:41.841Z,26.60
2023-03-29T16:09:12.224Z,16.10
2023-03-29T16:11:43.070Z,45.10
2023-03-29T16:14:27.582Z,35.60
2023-03-29T16:17:01.481Z,26.10
2023-03-29T16:19:33.245Z,23.10
2023-03-29T16:22:05.403Z,18.00
2023-03-29T16:24:35.898Z,21.00
2023-03-29T16:27:04.668Z,20.80
2023-03-29T16:29:34.893Z,27.90
2023-03-29T16:32:06.603Z,21.00
2023-03-29T16:34:36.444Z,25.20
2023-03-29T16:37:05.249Z,19.40
2023-03-29T16:39:33.705Z,27.20
2023-03-29T16:42:02.909Z,19.80
2023-03-29T16:44:31.653Z,29.20
2023-03-29T16:47:00.173Z,47.10
2023-03-29T16:49:29.522Z,48.80
2023-03-29T16:52:00.531Z,58.20
2023-03-29T16:54:29.907Z,29.40
2023-03-29T16:56:59.038Z,36.80
2023-03-29T16:59:28.281Z,35.00
2023-03-29T17:01:56.949Z,24.70
2023-03-29T17:04:39.457Z,20.00
2023-03-29T17:07:28.482Z,28.40
2023-03-29T17:10:21.991Z,32.00
2023-03-29T17:13:09.972Z,17.60
2023-03-29T17:16:01.882Z,32.90
2023-03-29T17:18:53.423Z,38.20
2023-03-29T17:21:45.610Z,23.30
2023-03-29T17:24:38.521Z,19.60
2023-03-29T17:27:24.607Z,15.70
2023-03-29T17:30:27.893Z,17.80
2023-03-29T17:33:19.104Z,18.00
2023-03-29T17:36:11.423Z,20.00
2023-03-29T17:39:03.476Z,16.20
2023-03-29T17:41:52.608Z,18.20
2023-03-29T17:44:28.646Z,19.50
2023-03-29T17:46:58.857Z,27.90
2023-03-29T17:49:27.774Z,23.40
2023-03-29T17:51:57.981Z,16.00
2023-03-29T17:54:27.304Z,14.70
2023-03-29T17:56:55.815Z,17.00
2023-03-29T17:59:25.160Z,18.30
2023-03-29T18:01:54.017Z,13.00
2023-03-29T18:04:22.531Z,18.40
2023-03-29T18:06:51.449Z,32.10
2023-03-29T18:09:20.154Z,25.40
2023-03-29T18:11:48.538Z,24.90
2023-03-29T18:14:18.040Z,18.20
2023-03-29T18:16:47.381Z,21.20
2023-03-29T18:19:16.161Z,18.20
2023-03-29T18:21:45.137Z,16.30
2023-03-29T18:24:13.676Z,35.20
2023-03-29T18:26:42.258Z,33.90
2023-03-29T18:29:11.786Z,31.50
2023-03-29T18:31:40.789Z,22.10
2023-03-29T18:34:09.762Z,21.90
2023-03-29T18:36:39.070Z,14.20
2023-03-29T18:39:08.011Z,13.30
2023-03-29T18:41:37.614Z,17.90
2023-03-29T18:44:08.112Z,19.00
2023-03-29T18:46:37.165Z,15.60
2023-03-29T18:49:07.855Z,14.50
2023-03-29T18:51:37.317Z,15.00
2023-03-29T18:54:06.787Z,15.60
2023-03-29T18:56:36.030Z,13.40
2023-03-29T18:59:06.877Z,10.10
2023-03-29T19:01:36.214Z,10.50
2023-03-29T19:04:04.869Z,9.50
2023-03-29T19:06:34.016Z,10.40
2023-03-29T19:09:05.437Z,8.50
2023-03-29T19:11:36.255Z,9.70
2023-03-29T19:14:08.666Z,12.40
2023-03-29T19:16:38.497Z,13.30
2023-03-29T19:19:09.409Z,13.70
2023-03-29T19:21:39.036Z,14.80
2023-03-29T19:24:08.129Z,13.80
2023-03-29T19:26:36.889Z,14.00
2023-03-29T19:29:06.679Z,12.20
2023-03-29T19:31:38.209Z,10.70
2023-03-29T19:34:10.075Z,11.60
2023-03-29T19:36:38.691Z,10.70
2023-03-29T19:39:07.636Z,11.30
2023-03-29T19:41:36.974Z,11.00
2023-03-29T19:44:06.758Z,13.20
2023-03-29T19:46:35.274Z,14.30
2023-03-29T19:49:06.108Z,21.20
2023-03-29T19:51:34.907Z,31.50
2023-03-29T19:54:03.464Z,30.70
2023-03-29T19:56:33.558Z,17.10
2023-03-29T19:59:02.021Z,18.30
2023-03-29T20:01:32.613Z,19.00
2023-03-29T20:04:03.167Z,14.10
2023-03-29T20:06:31.700Z,12.80
2023-03-29T20:09:00.246Z,15.80
2023-03-29T20:11:29.518Z,12.90
2023-03-29T20:13:58.349Z,14.00
2023-03-29T20:16:27.366Z,10.80
2023-03-29T20:18:56.700Z,11.00
2023-03-29T20:21:25.539Z,10.00
2023-03-29T20:23:54.029Z,9.00
2023-03-29T20:26:23.468Z,9.90
2023-03-29T20:28:52.909Z,9.30
2023-03-29T20:31:21.403Z,10.20
2023-03-29T20:33:50.664Z,9.30
2023-03-29T20:36:23.168Z,8.80
2023-03-29T20:38:52.947Z,8.10
2023-03-29T20:41:23.127Z,7.20
